»·PEaware :: AAL2024 KSFO-KLAS

AAL2024 :: KSFO-KLAS

FLIGHT INFORMATION

Flight Status: Arrived
Operator:
American Airlines
More flights by this operator :: More flights under this callsign
Pilot: Will K. (13011)
Aircraft: Unknown
(B788)
More flights by this aircraft type
Origin: KSFO San Francisco Intl
United States
Destination: KLAS McCarran Intl
United States
More flights between these airports :: More routes between these airports
Route: SSTIK3 NTELL Q162 ESSAA BTY SUNST4
File this flight plan on PilotEdge
Remarks:
Altitude:
(Current/Filed)
35,000ft
Speed:
(Current/Filed)
360kts
Departed: 04-Aug-18 08:54 PM
Arrived: 04-Aug-18 09:58 PM
Distance/Time
Traveled:
359nm/1:04
Distance/Time
To Go:
Arrived

Flight Plot

Page will automatically refresh every two minutes.

Flight plan parsing failed; only flown route is shown


Map Options




Map Legend


Flown Route
Filed Route
Departure Airport
Arrival Airport
Navaid (VOR, NDB)
Fix

Horizontal Profiles

Position Reports

Time Latitude Longitude Heading Altitude Ground
Speed
04-Aug-18 20:24 37.613278 -122.391820 269 26ft 0kts
04-Aug-18 20:25 37.613278 -122.391820 269 26ft 0kts
04-Aug-18 20:26 37.613278 -122.391820 269 26ft 0kts
04-Aug-18 20:27 37.613278 -122.391820 269 26ft 0kts
04-Aug-18 20:28 37.613278 -122.391820 269 26ft 0kts
04-Aug-18 20:29 37.613278 -122.391820 269 26ft 0kts
04-Aug-18 20:30 37.613278 -122.391820 269 26ft 0kts
04-Aug-18 20:31 37.613278 -122.391820 269 26ft 0kts
04-Aug-18 20:32 37.613278 -122.391820 269 26ft 0kts
04-Aug-18 20:33 37.613278 -122.391820 269 26ft 0kts
04-Aug-18 20:34 37.613278 -122.391820 269 26ft 0kts
04-Aug-18 20:35 37.613278 -122.391820 269 26ft 0kts
04-Aug-18 20:36 37.613278 -122.391820 269 26ft 0kts
04-Aug-18 20:37 37.613278 -122.391820 269 26ft 0kts
04-Aug-18 20:38 37.613278 -122.391820 269 26ft 0kts
04-Aug-18 20:39 37.613278 -122.391820 269 26ft 0kts
04-Aug-18 20:40 37.613278 -122.391820 269 26ft 0kts
04-Aug-18 20:41 37.613278 -122.391820 269 26ft 0kts
04-Aug-18 20:42 37.613280 -122.391499 269 26ft 2kts
04-Aug-18 20:43 37.613286 -122.390705 269 26ft 1kts
04-Aug-18 20:44 37.613286 -122.390688 269 26ft 10kts
04-Aug-18 20:45 37.613286 -122.390688 269 26ft 17kts
04-Aug-18 20:46 37.613285 -122.390820 269 26ft 0kts
04-Aug-18 20:47 37.613285 -122.390824 269 26ft 0kts
04-Aug-18 20:48 37.612745 -122.391324 209 26ft 8kts
04-Aug-18 20:49 37.610225 -122.389279 63 26ft 13kts
04-Aug-18 20:50 37.610491 -122.386403 118 26ft 13kts
04-Aug-18 20:51 37.608623 -122.384146 118 26ft 3kts
04-Aug-18 20:52 37.608618 -122.384134 118 26ft 0kts
04-Aug-18 20:53 37.608616 -122.384131 118 26ft 0kts
04-Aug-18 20:54 37.608787 -122.382326 30 26ft 16kts
04-Aug-18 20:55 37.640365 -122.360552 22 1785ft 162kts
04-Aug-18 20:56 37.691518 -122.375849 299 4064ft 238kts
04-Aug-18 20:57 37.652912 -122.432165 190 7932ft 284kts
04-Aug-18 20:58 37.571661 -122.451962 196 11056ft 323kts
04-Aug-18 20:59 37.476110 -122.463264 159 13740ft 374kts
04-Aug-18 21:00 37.417821 -122.348816 123 16325ft 417kts
04-Aug-18 21:01 37.385595 -122.205590 105 18699ft 441kts
04-Aug-18 21:02 37.355091 -122.053431 107 21073ft 459kts
04-Aug-18 21:03 37.323271 -121.894978 108 23132ft 476kts
04-Aug-18 21:04 37.290121 -121.731238 108 25006ft 492kts
04-Aug-18 21:05 37.255629 -121.562141 108 26703ft 507kts
04-Aug-18 21:06 37.219942 -121.388590 109 28255ft 522kts
04-Aug-18 21:07 37.182911 -121.210023 109 29821ft 537kts
04-Aug-18 21:08 37.144544 -121.026391 109 31479ft 550kts
04-Aug-18 21:09 37.105303 -120.840067 110 33779ft 550kts
04-Aug-18 21:10 37.065844 -120.655367 111 34896ft 551kts
04-Aug-18 21:11 37.025920 -120.469192 111 34890ft 556kts
04-Aug-18 21:12 36.985521 -120.282345 111 34897ft 556kts
04-Aug-18 21:13 36.944864 -120.095816 111 34894ft 555kts
04-Aug-18 21:14 36.904999 -119.909714 104 34864ft 559kts
04-Aug-18 21:15 36.931962 -119.719959 60 34901ft 567kts
04-Aug-18 21:16 37.013691 -119.551609 65 34910ft 568kts
04-Aug-18 21:17 37.070394 -119.366425 67 34934ft 571kts
04-Aug-18 21:18 37.130057 -119.181815 68 34999ft 572kts
04-Aug-18 21:19 37.189062 -118.996638 68 35078ft 572kts
04-Aug-18 21:20 37.247749 -118.811194 68 35161ft 572kts
04-Aug-18 21:21 37.287559 -118.618192 87 35128ft 574kts
04-Aug-18 21:22 37.304395 -118.419562 84 35052ft 570kts
04-Aug-18 21:23 37.322126 -118.221925 85 35004ft 569kts
04-Aug-18 21:24 37.339535 -118.024823 85 35004ft 566kts
04-Aug-18 21:25 37.346947 -117.828929 99 34998ft 556kts
04-Aug-18 21:26 37.327924 -117.637027 99 34997ft 552kts
04-Aug-18 21:27 37.310838 -117.446477 100 35010ft 546kts
04-Aug-18 21:28 37.271438 -117.267507 125 35004ft 523kts
04-Aug-18 21:29 37.184910 -117.125776 134 34993ft 511kts
04-Aug-18 21:30 37.099178 -116.984287 138 34980ft 505kts
04-Aug-18 21:31 36.992927 -116.879047 160 34966ft 477kts
04-Aug-18 21:32 36.876044 -116.799970 158 34413ft 482kts
04-Aug-18 21:33 36.764196 -116.701318 134 31430ft 517kts
04-Aug-18 21:34 36.672395 -116.564194 136 28434ft 509kts
04-Aug-18 21:35 36.580246 -116.433731 135 25432ft 492kts
04-Aug-18 21:36 36.491687 -116.308684 135 22448ft 471kts
04-Aug-18 21:37 36.407403 -116.189971 134 19974ft 439kts
04-Aug-18 21:38 36.329904 -116.080986 133 18464ft 412kts
04-Aug-18 21:39 36.255062 -115.976156 133 17087ft 401kts
04-Aug-18 21:40 36.188958 -115.867667 112 15696ft 395kts
04-Aug-18 21:41 36.149766 -115.740613 113 14679ft 391kts
04-Aug-18 21:42 36.109659 -115.616845 113 13713ft 384kts
04-Aug-18 21:43 36.070568 -115.496549 114 12430ft 356kts
04-Aug-18 21:44 36.036265 -115.391356 114 11228ft 309kts
04-Aug-18 21:45 36.024688 -115.290599 96 10099ft 288kts
04-Aug-18 21:46 36.017962 -115.194459 98 8917ft 274kts
04-Aug-18 21:47 36.011872 -115.103678 98 8212ft 257kts
04-Aug-18 21:48 36.006859 -115.021354 98 8012ft 222kts
04-Aug-18 21:49 36.002637 -114.949480 98 7731ft 202kts
04-Aug-18 21:50 35.998372 -114.880970 98 6937ft 190kts
04-Aug-18 21:51 36.019305 -114.827260 11 5700ft 194kts
04-Aug-18 21:52 36.070111 -114.837749 340 4621ft 184kts
04-Aug-18 21:53 36.088465 -114.887310 272 3984ft 159kts
04-Aug-18 21:54 36.084902 -114.939861 252 3900ft 151kts
04-Aug-18 21:55 36.076621 -114.989986 257 3450ft 148kts
04-Aug-18 21:56 36.073947 -115.040594 269 3008ft 148kts
04-Aug-18 21:57 36.073750 -115.091677 264 2516ft 148kts
04-Aug-18 21:58 36.073624 -115.139171 270 2128ft 64kts
04-Aug-18 21:59 36.074229 -115.144488 293 2128ft 0kts
04-Aug-18 22:00 36.074239 -115.144518 293 2128ft 2kts
04-Aug-18 22:01 36.076463 -115.146458 355 2128ft 18kts

Navigation Log

Ident Type
Flight plan parsing failed, navigation log unavailable